Hrossey — VSTY6 — position and weather

sailwx.info

Track history (hours):
 
Tides and Currents Weather Stations Pressure Air Temp Water Temp Dewpoint Dewpoint Depression Visibility Wind Speed Wind Dir Waves Ship Positions

Hrossey

Operator: NorthLink Orkey & Shetland Ferries Ltd

Last reported at 2020-Apr-01 21:26 UTC. Time now 2020-Apr-02 23:03 UTC.
Position N 57°50' W 001°38'.

Length 125 m; draft 5.4 m.

Type: Ship. MMSI: 235448000.

Date/timePositionNaut miles runAvg speedWind from/ knotsBaromVisibWave heightAir tempDewpointWater temp
2020-Apr-01 21:26N 57°50' W 001°38'717.4
2020-Apr-01 21:00N 57°42' W 001°38'3714.7
2020-Apr-01 18:30N 57°09' W 002°05'0 0.1
2020-Apr-01 18:00N 57°09' W 002°05'0 0.0
2020-Apr-01 17:00N 57°09' W 002°05'0 0.0
2020-Apr-01 16:30N 57°09' W 002°05'0 0.0
2020-Apr-01 10:30N 57°09' W 002°05'0 0.0
2020-Apr-01 08:00N 57°09' W 002°05'0 0.0
2020-Apr-01 07:30N 57°09' W 002°05'45 1.3
2020-Mar-30 20:42N 57°51' W 001°38'4514.0
2020-Mar-30 17:30N 57°09' W 002°05'0 0.0
2020-Mar-30 16:27N 57°09' W 002°05'0 0.0
2020-Mar-30 14:27N 57°09' W 002°05'0 0.0
2020-Mar-30 13:57N 57°09' W 002°05'0 0.0
2020-Mar-30 11:57N 57°09' W 002°05'0 0.0
2020-Mar-30 10:28N 57°09' W 002°05'0 0.0
2020-Mar-30 08:28N 57°09' W 002°05'0 0.0
2020-Mar-30 07:58N 57°09' W 002°05'0 0.0
2020-Mar-30 05:58N 57°09' W 002°05'0 1.0
2020-Mar-30 05:31N 57°09' W 002°05'1212.0
2020-Mar-30 04:30N 57°18' W 001°50'110 3.8
2020-Mar-29 00:00N 59°01' W 002°56'2 3.7
2020-Mar-28 23:31N 58°60' W 002°58'7717.7
2020-Mar-28 19:10N 57°51' W 001°53'4311.7
2020-Mar-28 15:29N 57°09' W 002°05'0 0.0
2020-Mar-28 12:29N 57°09' W 002°05'0 0.0
2020-Mar-28 11:59N 57°09' W 002°05'0 0.0
2020-Mar-28 11:29N 57°09' W 002°05'0 0.0
2020-Mar-28 08:30N 57°09' W 002°05'1 0.3
2020-Mar-28 06:31N 57°08' W 002°04'612.3
2020-Mar-28 06:00N 57°13' W 001°56'10620.9
2020-Mar-28 00:54N 58°57' W 002°38'11 4.2
2020-Mar-27 22:16N 58°60' W 002°58'1215.3
2020-Mar-27 21:29N 59°01' W 002°36'12 0.5
2020-Mar-26 21:27N 58°49' W 002°33'1323.4
2020-Mar-26 20:54N 58°37' W 002°24'7024.2
2020-Mar-26 18:01N 57°31' W 001°40'1224.1
2020-Mar-26 17:31N 57°20' W 001°50'14 5.6
2020-Mar-26 15:00N 57°09' W 002°05'0 0.0
2020-Mar-26 13:30N 57°09' W 002°05'0 0.0
2020-Mar-26 11:00N 57°09' W 002°05'0 0.0
2020-Mar-26 10:00N 57°09' W 002°05'0 0.0
2020-Mar-26 09:30N 57°09' W 002°05'0 0.0
2020-Mar-26 08:00N 57°09' W 002°05'0 0.0
2020-Mar-26 07:30N 57°09' W 002°05'0 0.0
2020-Mar-26 07:00N 57°09' W 002°05'1 1.2
2020-Mar-26 06:30N 57°08' W 002°04'613.0
2020-Mar-26 06:00N 57°13' W 001°56'1121.9
2020-Mar-26 05:30N 57°22' W 001°46'2221.5
2020-Mar-26 04:29N 57°44' W 001°47'8414.8
2020-Mar-25 22:47N 58°60' W 002°58'79 3.1
2020-Mar-24 21:30N 57°51' W 001°43'2013.5
2020-Mar-24 20:01N 57°31' W 001°38'714.8
2020-Mar-24 19:30N 57°24' W 001°44'714.9
2020-Mar-24 19:01N 57°17' W 001°50'12 8.0
2020-Mar-24 17:29N 57°09' W 002°05'0 0.0
2020-Mar-24 16:59N 57°09' W 002°05'0 0.0
2020-Mar-24 15:29N 57°09' W 002°05'0 0.0
2020-Mar-24 13:59N 57°09' W 002°05'0 0.0
2020-Mar-24 13:29N 57°09' W 002°05'0 0.0
2020-Mar-24 12:59N 57°09' W 002°05'0 0.0
2020-Mar-24 09:59N 57°09' W 002°05'0 0.0
2020-Mar-24 08:29N 57°09' W 002°05'0 0.0
2020-Mar-24 07:58N 57°09' W 002°05'0 1.0
2020-Mar-24 07:31N 57°09' W 002°05'3115.4
2020-Mar-24 05:30N 57°36' W 001°40'93 3.3
2020-Mar-23 01:27N 59°05' W 002°29'14 9.8
2020-Mar-23 00:00N 59°01' W 002°55'2 1.6
2020-Mar-22 22:30N 59°01' W 002°50'919.2
2020-Mar-22 22:00N 58°55' W 002°36'  
Track history (hours):
 
Tides and Currents Weather Stations Pressure Air Temp Water Temp Dewpoint Dewpoint Depression Visibility Wind Speed Wind Dir Waves Ship Positions

Hrossey

Operator: NorthLink Orkey & Shetland Ferries Ltd

Last reported at 2020-Apr-01 21:26 UTC. Time now 2020-Apr-02 23:03 UTC.
Position N 57°50' W 001°38'.

Length 125 m; draft 5.4 m.

Type: Ship. MMSI: 235448000.

Date/timePositionNaut miles runAvg speedWind from/ knotsBaromVisibWave heightAir tempDewpointWater temp
2020-Apr-01 21:26N 57°50' W 001°38'717.4
2020-Apr-01 21:00N 57°42' W 001°38'3714.7
2020-Apr-01 18:30N 57°09' W 002°05'0 0.1
2020-Apr-01 18:00N 57°09' W 002°05'0 0.0
2020-Apr-01 17:00N 57°09' W 002°05'0 0.0
2020-Apr-01 16:30N 57°09' W 002°05'0 0.0
2020-Apr-01 10:30N 57°09' W 002°05'0 0.0
2020-Apr-01 08:00N 57°09' W 002°05'0 0.0
2020-Apr-01 07:30N 57°09' W 002°05'45 1.3
2020-Mar-30 20:42N 57°51' W 001°38'4514.0
2020-Mar-30 17:30N 57°09' W 002°05'0 0.0
2020-Mar-30 16:27N 57°09' W 002°05'0 0.0
2020-Mar-30 14:27N 57°09' W 002°05'0 0.0
2020-Mar-30 13:57N 57°09' W 002°05'0 0.0
2020-Mar-30 11:57N 57°09' W 002°05'0 0.0
2020-Mar-30 10:28N 57°09' W 002°05'0 0.0
2020-Mar-30 08:28N 57°09' W 002°05'0 0.0
2020-Mar-30 07:58N 57°09' W 002°05'0 0.0
2020-Mar-30 05:58N 57°09' W 002°05'0 1.0
2020-Mar-30 05:31N 57°09' W 002°05'1212.0
2020-Mar-30 04:30N 57°18' W 001°50'110 3.8
2020-Mar-29 00:00N 59°01' W 002°56'2 3.7
2020-Mar-28 23:31N 58°60' W 002°58'7717.7
2020-Mar-28 19:10N 57°51' W 001°53'4311.7
2020-Mar-28 15:29N 57°09' W 002°05'0 0.0
2020-Mar-28 12:29N 57°09' W 002°05'0 0.0
2020-Mar-28 11:59N 57°09' W 002°05'0 0.0
2020-Mar-28 11:29N 57°09' W 002°05'0 0.0
2020-Mar-28 08:30N 57°09' W 002°05'1 0.3
2020-Mar-28 06:31N 57°08' W 002°04'612.3
2020-Mar-28 06:00N 57°13' W 001°56'10620.9
2020-Mar-28 00:54N 58°57' W 002°38'11 4.2
2020-Mar-27 22:16N 58°60' W 002°58'1215.3
2020-Mar-27 21:29N 59°01' W 002°36'12 0.5
2020-Mar-26 21:27N 58°49' W 002°33'1323.4
2020-Mar-26 20:54N 58°37' W 002°24'7024.2
2020-Mar-26 18:01N 57°31' W 001°40'1224.1
2020-Mar-26 17:31N 57°20' W 001°50'14 5.6
2020-Mar-26 15:00N 57°09' W 002°05'0 0.0
2020-Mar-26 13:30N 57°09' W 002°05'0 0.0
2020-Mar-26 11:00N 57°09' W 002°05'0 0.0
2020-Mar-26 10:00N 57°09' W 002°05'0 0.0
2020-Mar-26 09:30N 57°09' W 002°05'0 0.0
2020-Mar-26 08:00N 57°09' W 002°05'0 0.0
2020-Mar-26 07:30N 57°09' W 002°05'0 0.0
2020-Mar-26 07:00N 57°09' W 002°05'1 1.2
2020-Mar-26 06:30N 57°08' W 002°04'613.0
2020-Mar-26 06:00N 57°13' W 001°56'1121.9
2020-Mar-26 05:30N 57°22' W 001°46'2221.5
2020-Mar-26 04:29N 57°44' W 001°47'8414.8
2020-Mar-25 22:47N 58°60' W 002°58'79 3.1
2020-Mar-24 21:30N 57°51' W 001°43'2013.5
2020-Mar-24 20:01N 57°31' W 001°38'714.8
2020-Mar-24 19:30N 57°24' W 001°44'714.9
2020-Mar-24 19:01N 57°17' W 001°50'12 8.0
2020-Mar-24 17:29N 57°09' W 002°05'0 0.0
2020-Mar-24 16:59N 57°09' W 002°05'0 0.0
2020-Mar-24 15:29N 57°09' W 002°05'0 0.0
2020-Mar-24 13:59N 57°09' W 002°05'0 0.0
2020-Mar-24 13:29N 57°09' W 002°05'0 0.0
2020-Mar-24 12:59N 57°09' W 002°05'0 0.0
2020-Mar-24 09:59N 57°09' W 002°05'0 0.0
2020-Mar-24 08:29N 57°09' W 002°05'0 0.0
2020-Mar-24 07:58N 57°09' W 002°05'0 1.0
2020-Mar-24 07:31N 57°09' W 002°05'3115.4
2020-Mar-24 05:30N 57°36' W 001°40'93 3.3
2020-Mar-23 01:27N 59°05' W 002°29'14 9.8
2020-Mar-23 00:00N 59°01' W 002°55'2 1.6
2020-Mar-22 22:30N 59°01' W 002°50'919.2
2020-Mar-22 22:00N 58°55' W 002°36'  

Dump ship's entire track history